Time;durP1;ratioP1;P1;durP2;ratioP2;P2;SDS_P1;SDS_P2;PMS_P1;PMS_P2;Temp;Humidity;BMP_temperature;BMP_pressure;BME280_temperature;BME280_humidity;BME280_pressure;Samples;Min_cycle;Max_cycle;Signal;HPM_P1;HPM_P2
2021/07/03 05:40:37;;;;;;;32.13;17.90;;;11.80;99.90;;;;;;5622634;23;20416;31
2021/07/03 06:34:09;;;;;;;19.92;11.32;;;17.80;99.90;;;;;;5575690;23;20531;-92
2021/07/03 07:45:00;;;;;;;14.70;9.07;;;16.40;99.90;;;;;;5057435;23;20538;-95
2021/07/03 07:47:50;;;;;;;14.20;9.88;;;16.50;99.90;;;;;;4880189;23;20428;-96
2021/07/03 08:02:01;;;;;;;17.52;8.43;;;16.80;99.90;;;;;;5804792;23;20438;-94
2021/07/03 08:04:28;;;;;;;16.75;8.85;;;16.70;99.90;;;;;;4847323;29;20864;-93
2021/07/03 08:06:55;;;;;;;14.73;8.10;;;16.70;99.90;;;;;;4846196;29;20440;-94
2021/07/03 08:09:23;;;;;;;14.38;8.57;;;16.90;99.90;;;;;;4846264;29;20517;-94
2021/07/03 08:11:50;;;;;;;15.25;8.93;;;17.20;99.90;;;;;;4846679;29;20442;-94
2021/07/03 08:14:18;;;;;;;13.88;7.43;;;17.30;99.90;;;;;;4846350;29;20434;-92
2021/07/03 08:16:45;;;;;;;12.50;7.03;;;17.30;99.90;;;;;;4846208;29;20434;-94
2021/07/03 08:19:13;;;;;;;12.20;7.45;;;17.30;99.90;;;;;;4845881;29;20446;-93
2021/07/03 08:21:40;;;;;;;13.20;8.52;;;17.40;99.90;;;;;;4846059;29;20435;-94
2021/07/03 08:24:07;;;;;;;12.80;7.65;;;17.30;99.90;;;;;;4849468;29;20521;-93
2021/07/03 08:26:35;;;;;;;12.55;7.82;;;17.10;99.90;;;;;;4863152;29;20940;-92
2021/07/03 08:29:03;;;;;;;11.85;7.55;;;17.20;99.90;;;;;;4850421;29;20435;-95
2021/07/03 08:31:30;;;;;;;10.80;7.38;;;17.40;99.90;;;;;;4847576;29;20445;-91
2021/07/03 08:33:57;;;;;;;11.33;7.70;;;17.40;99.90;;;;;;4846324;29;20438;-92
2021/07/03 08:36:24;;;;;;;13.68;7.47;;;17.60;99.90;;;;;;4846321;29;20445;-95
2021/07/03 08:38:52;;;;;;;13.15;7.47;;;17.70;99.90;;;;;;4845512;29;20438;-94
2021/07/03 08:41:20;;;;;;;14.95;8.10;;;17.80;99.90;;;;;;4846000;29;20434;-96
2021/07/03 08:43:49;;;;;;;13.90;8.27;;;17.60;99.90;;;;;;4845874;29;20785;-94
2021/07/03 08:46:20;;;;;;;19.70;7.85;;;17.50;99.90;;;;;;4845501;29;20438;-93
2021/07/03 08:48:54;;;;;;;22.57;8.83;;;17.50;99.90;;;;;;4844993;29;20434;-95
2021/07/03 08:51:22;;;;;;;14.97;7.77;;;17.50;99.90;;;;;;4846025;29;20442;-93
2021/07/03 08:53:50;;;;;;;11.82;7.10;;;17.60;99.90;;;;;;4845334;29;20445;-93
2021/07/03 08:56:19;;;;;;;11.50;7.30;;;17.70;99.90;;;;;;4845476;29;20491;-92
2021/07/03 08:58:48;;;;;;;15.13;7.00;;;18.00;99.90;;;;;;4846170;29;20438;-96
2021/07/03 09:01:15;;;;;;;10.57;7.30;;;18.10;99.90;;;;;;4845867;29;20940;-92
2021/07/03 09:03:54;;;;;;;10.53;6.70;;;18.20;99.90;;;;;;4845737;29;20446;-94
2021/07/03 09:06:34;;;;;;;13.25;7.40;;;18.20;99.90;;;;;;4845793;29;20449;-93
2021/07/03 09:09:01;;;;;;;14.02;7.82;;;18.20;99.90;;;;;;4845754;29;20442;-93
2021/07/03 09:11:28;;;;;;;14.45;6.78;;;18.20;99.90;;;;;;4845358;29;20494;-92
2021/07/03 09:14:07;;;;;;;11.93;6.93;;;18.00;99.90;;;;;;4846031;29;20437;-96
2021/07/03 09:17:02;;;;;;;11.30;7.53;;;17.70;99.90;;;;;;4853193;29;20904;-94
2021/07/03 09:19:52;;;;;;;12.15;7.50;;;17.50;99.90;;;;;;4855452;29;20437;-92
2021/07/03 09:22:36;;;;;;;13.15;6.97;;;17.50;99.90;;;;;;4856020;29;20476;-92
2021/07/03 09:25:53;;;;;;;11.13;6.97;;;18.00;99.90;;;;;;4869108;29;20442;-95
2021/07/03 09:29:06;;;;;;;11.20;6.90;;;18.40;99.90;;;;;;4854181;29;20425;-92
2021/07/03 09:31:50;;;;;;;9.33;6.10;;;18.70;99.90;;;;;;4854570;29;20837;-92
2021/07/03 09:35:01;;;;;;;8.40;6.28;;;19.10;99.90;;;;;;4860825;29;20438;-93
2021/07/03 09:37:51;;;;;;;9.80;6.53;;;18.90;99.90;;;;;;4867766;29;20513;-91
2021/07/03 09:40:19;;;;;;;11.73;7.25;;;18.40;99.90;;;;;;4853492;29;20445;-92
2021/07/03 09:42:50;;;;;;;9.93;6.80;;;18.50;99.90;;;;;;4848970;29;20434;-91
2021/07/03 09:46:14;;;;;;;11.57;7.28;;;18.80;99.90;;;;;;4855015;29;20465;-92
2021/07/03 09:49:06;;;;;;;11.90;6.65;;;18.40;99.90;;;;;;4865787;29;20418;-91
2021/07/03 09:51:51;;;;;;;11.17;7.37;;;18.20;99.90;;;;;;4846634;29;20435;-89
2021/07/03 09:54:28;;;;;;;10.55;6.47;;;18.40;99.90;;;;;;4847321;29;20454;-96
2021/07/03 09:57:00;;;;;;;12.35;7.65;;;18.60;99.90;;;;;;4845981;29;20431;-92
2021/07/03 09:59:32;;;;;;;10.15;7.72;;;18.70;99.90;;;;;;4846517;29;20955;-94
2021/07/03 10:01:59;;;;;;;12.82;8.00;;;18.70;99.90;;;;;;4847446;29;20430;-94
2021/07/03 10:04:27;;;;;;;12.77;8.63;;;18.70;99.90;;;;;;4847945;29;20453;-93
2021/07/03 10:07:11;;;;;;;12.52;6.78;;;18.90;99.90;;;;;;4855703;29;20445;-93
2021/07/03 10:09:54;;;;;;;12.57;5.85;;;19.00;99.90;;;;;;4848165;29;20476;-92
2021/07/03 10:12:30;;;;;;;10.23;6.35;;;19.40;99.90;;;;;;4848584;29;20434;-94
2021/07/03 10:14:58;;;;;;;9.10;6.18;;;19.40;99.90;;;;;;4849250;29;20897;-92
2021/07/03 10:17:28;;;;;;;9.65;6.75;;;19.20;99.90;;;;;;4847769;29;20430;-94
2021/07/03 10:19:57;;;;;;;9.27;6.30;;;19.30;99.90;;;;;;4847643;29;20458;-94
2021/07/03 10:22:52;;;;;;;8.70;5.72;;;19.50;99.90;;;;;;4847865;29;20434;-94
2021/07/03 10:25:25;;;;;;;9.97;6.40;;;19.30;99.90;;;;;;4848847;29;20476;-94
2021/07/03 10:27:58;;;;;;;11.15;6.35;;;19.30;99.90;;;;;;4848208;29;20438;-94
2021/07/03 10:30:28;;;;;;;9.43;6.95;;;19.20;99.90;;;;;;4848317;29;20434;-92
2021/07/03 10:33:06;;;;;;;9.77;6.30;;;19.00;99.90;;;;;;4848358;29;20438;-92
2021/07/03 10:35:45;;;;;;;9.20;5.97;;;18.80;99.90;;;;;;4848209;29;20457;-93
2021/07/03 10:38:24;;;;;;;11.88;6.70;;;18.80;99.90;;;;;;4848692;29;20434;-94
2021/07/03 10:40:59;;;;;;;10.50;6.18;;;19.10;99.90;;;;;;4847584;29;20438;-94
2021/07/03 10:43:28;;;;;;;10.10;6.65;;;19.10;99.90;;;;;;4847268;29;20434;-92
2021/07/03 10:45:56;;;;;;;10.37;6.17;;;19.20;99.90;;;;;;4847879;29;20450;-94
2021/07/03 10:48:25;;;;;;;8.45;5.60;;;19.30;99.90;;;;;;4848274;29;20982;-96
2021/07/03 10:51:07;;;;;;;8.30;6.07;;;19.60;99.90;;;;;;4847904;29;20438;-91
2021/07/03 10:54:07;;;;;;;8.88;6.20;;;19.90;99.90;;;;;;4866606;29;20442;-92
2021/07/03 13:02:07;;;;;;;6.53;4.20;;;22.30;93.50;;;;;;5914132;23;20383;-96
2021/07/03 13:04:49;;;;;;;5.80;4.18;;;22.10;94.60;;;;;;4834942;29;20455;-96
2021/07/03 13:07:26;;;;;;;6.63;3.90;;;22.80;92.40;;;;;;4846663;29;20436;-96
2021/07/03 13:10:13;;;;;;;8.00;3.78;;;23.20;91.70;;;;;;4843368;29;20431;-95
2021/07/03 13:30:30;;;;;;;4.60;3.63;;;24.80;79.40;;;;;;4877186;29;20418;-96
2021/07/03 13:34:00;;;;;;;5.25;3.80;;;25.20;90.10;;;;;;5190474;23;20446;-96
2021/07/03 13:39:46;;;;;;;4.53;3.40;;;25.50;81.80;;;;;;5055030;23;20840;-92
2021/07/03 13:42:56;;;;;;;4.88;3.50;;;25.60;74.10;;;;;;4871016;29;20445;-95
2021/07/03 13:45:23;;;;;;;8.43;3.40;;;25.50;73.40;;;;;;4869514;29;20474;-94
2021/07/03 13:47:56;;;;;;;4.55;3.33;;;25.60;72.50;;;;;;4871568;29;20433;-95
2021/07/03 13:51:05;;;;;;;6.72;3.40;;;25.60;72.70;;;;;;4877278;29;20428;-96
2021/07/03 13:53:37;;;;;;;4.40;3.22;;;25.80;71.10;;;;;;4858519;29;20435;-94
2021/07/03 13:56:06;;;;;;;6.07;3.58;;;25.90;68.30;;;;;;4876472;29;20436;-93
2021/07/03 13:58:36;;;;;;;5.10;3.63;;;26.00;69.70;;;;;;4873730;29;20467;-96
2021/07/03 14:01:09;;;;;;;5.57;3.50;;;25.90;66.60;;;;;;4871918;29;20437;-94
2021/07/03 14:03:45;;;;;;;6.20;3.40;;;25.90;65.50;;;;;;4870025;29;20433;-95
2021/07/03 14:06:12;;;;;;;5.73;3.20;;;25.80;66.70;;;;;;4867283;29;20483;-94
2021/07/03 14:08:42;;;;;;;6.88;3.47;;;25.80;68.60;;;;;;4869934;29;20445;-94
2021/07/03 14:11:13;;;;;;;8.40;3.17;;;25.90;69.30;;;;;;4871876;29;20464;-94
2021/07/03 14:13:45;;;;;;;3.65;3.10;;;26.00;67.80;;;;;;4872788;29;20444;-96
2021/07/03 14:16:12;;;;;;;7.28;3.20;;;25.70;66.20;;;;;;4870190;29;20930;-86
2021/07/03 14:18:49;;;;;;;7.90;3.20;;;25.80;63.40;;;;;;4868487;29;20432;-91
2021/07/03 14:21:18;;;;;;;6.45;3.25;;;25.90;64.80;;;;;;4867383;29;20439;-92
2021/07/03 14:23:45;;;;;;;5.15;3.50;;;26.10;63.90;;;;;;4867197;29;20504;-91
2021/07/03 14:26:12;;;;;;;4.88;3.35;;;26.30;64.40;;;;;;4866649;29;20449;-93
2021/07/03 14:28:39;;;;;;;7.20;3.63;;;26.10;65.80;;;;;;4866452;29;20433;-91
2021/07/03 14:31:06;;;;;;;6.40;3.50;;;26.00;70.20;;;;;;4866182;29;20509;-90
2021/07/03 14:33:34;;;;;;;5.13;3.55;;;26.30;67.80;;;;;;4866748;29;20484;-90
2021/07/03 14:36:03;;;;;;;5.13;3.25;;;26.50;70.00;;;;;;4866081;29;20444;-90
2021/07/03 14:38:34;;;;;;;3.92;3.17;;;26.60;65.80;;;;;;4866695;29;20448;-89
2021/07/03 14:41:02;;;;;;;5.00;3.70;;;26.80;66.10;;;;;;4866409;29;20777;-96
2021/07/03 14:43:29;;;;;;;6.22;3.50;;;26.80;62.40;;;;;;4870719;29;20480;-91
2021/07/03 14:45:56;;;;;;;6.30;3.78;;;26.50;66.40;;;;;;4870378;29;20457;-90
2021/07/03 14:48:25;;;;;;;7.47;3.92;;;26.00;65.80;;;;;;4848538;29;20438;-93
2021/07/03 14:50:52;;;;;;;6.90;3.50;;;26.00;69.70;;;;;;4849605;29;20441;-94
2021/07/03 14:53:19;;;;;;;7.25;3.70;;;26.00;68.50;;;;;;4853049;29;20446;-94
2021/07/03 14:55:48;;;;;;;7.00;3.60;;;26.20;76.30;;;;;;4866432;29;20414;-90
2021/07/03 14:58:15;;;;;;;4.70;3.63;;;26.60;65.90;;;;;;4851560;29;20449;-90
2021/07/03 15:00:42;;;;;;;5.80;3.90;;;26.60;67.00;;;;;;4850453;29;20434;-89
2021/07/03 15:03:10;;;;;;;5.60;3.90;;;26.50;66.20;;;;;;4866661;29;20944;-89
2021/07/03 15:05:37;;;;;;;5.22;3.83;;;26.60;65.60;;;;;;4851515;29;20450;-89
2021/07/03 15:08:05;;;;;;;6.07;3.83;;;26.30;66.50;;;;;;4853198;29;20530;-96
2021/07/03 15:10:32;;;;;;;5.95;4.03;;;26.40;68.10;;;;;;4853651;29;20430;-89
2021/07/03 15:12:59;;;;;;;5.10;3.80;;;26.70;69.10;;;;;;4854945;29;20466;-90
2021/07/03 15:15:28;;;;;;;6.60;3.55;;;26.90;70.70;;;;;;4851103;29;20442;-92
2021/07/03 15:18:31;;;;;;;5.63;3.93;;;27.20;66.00;;;;;;4856298;29;20434;-96
2021/07/03 15:20:58;;;;;;;9.00;3.85;;;27.10;63.00;;;;;;4842243;29;20454;-95
2021/07/03 15:23:27;;;;;;;7.22;3.80;;;26.80;66.50;;;;;;4857348;29;20458;-96
2021/07/03 15:25:54;;;;;;;5.00;3.57;;;26.80;68.50;;;;;;4872841;29;20457;-96
2021/07/03 15:28:37;;;;;;;6.53;3.80;;;26.80;64.20;;;;;;4865390;23;20444;-96
2021/07/03 15:31:05;;;;;;;4.75;3.67;;;26.80;65.60;;;;;;4831521;29;20770;-87
2021/07/03 15:33:32;;;;;;;4.05;3.30;;;26.50;63.90;;;;;;4843349;29;20436;-89
2021/07/03 15:36:01;;;;;;;5.75;3.90;;;26.30;64.10;;;;;;4828510;29;20444;-95
2021/07/03 15:38:34;;;;;;;4.37;3.60;;;26.00;63.10;;;;;;4837774;29;20442;-95
2021/07/03 15:41:04;;;;;;;5.30;3.13;;;26.30;70.50;;;;;;4833867;29;20448;-96
2021/07/03 15:43:32;;;;;;;6.18;3.47;;;26.70;64.80;;;;;;4834404;29;20447;-95
2021/07/03 15:45:59;;;;;;;5.60;3.30;;;26.70;64.30;;;;;;4831514;29;20523;-95
2021/07/03 15:48:37;;;;;;;5.68;3.60;;;27.00;62.90;;;;;;4837643;29;20436;-95
2021/07/03 15:51:09;;;;;;;6.10;3.67;;;27.00;62.10;;;;;;4841551;29;20440;-96
2021/07/03 15:53:44;;;;;;;19.42;3.83;;;26.90;64.00;;;;;;4825725;29;20512;-96
2021/07/03 15:56:47;;;;;;;6.20;3.60;;;27.00;63.80;;;;;;4838912;29;20448;-96
2021/07/03 15:59:17;;;;;;;5.90;3.83;;;27.10;64.90;;;;;;4844840;29;20469;-95
2021/07/03 16:02:00;;;;;;;12.40;4.93;;;26.60;62.90;;;;;;4837539;29;20818;-92
2021/07/03 16:04:27;;;;;;;7.05;3.90;;;26.30;67.90;;;;;;4830715;29;20494;-89
2021/07/03 16:06:54;;;;;;;5.30;3.60;;;26.30;64.40;;;;;;4849246;29;20942;-88
2021/07/03 16:09:21;;;;;;;4.30;3.42;;;26.60;72.20;;;;;;4829676;29;20941;-89
2021/07/03 16:11:48;;;;;;;8.82;3.33;;;27.00;65.20;;;;;;4829988;29;20495;-88
2021/07/03 16:14:16;;;;;;;7.47;3.55;;;26.90;64.10;;;;;;4828066;29;20440;-91
2021/07/03 16:16:43;;;;;;;5.35;3.88;;;26.80;66.70;;;;;;4827899;29;20439;-88
2021/07/03 16:19:10;;;;;;;5.78;3.80;;;26.90;70.50;;;;;;4827346;29;20431;-91
2021/07/03 16:21:36;;;;;;;6.47;3.40;;;27.00;63.60;;;;;;4844486;29;20432;-89
2021/07/03 16:24:04;;;;;;;5.90;3.50;;;27.10;64.00;;;;;;4828904;29;20494;-87
2021/07/03 16:26:31;;;;;;;5.15;3.30;;;27.20;64.00;;;;;;4829994;29;20459;-94
2021/07/03 16:28:58;;;;;;;6.18;3.45;;;27.30;62.20;;;;;;4830192;29;20440;-94
2021/07/03 16:31:26;;;;;;;4.80;3.70;;;27.30;62.10;;;;;;4830715;29;20435;-95
2021/07/03 16:33:54;;;;;;;7.78;3.63;;;26.90;64.10;;;;;;4828891;29;20435;-94
2021/07/03 16:36:21;;;;;;;5.68;3.50;;;26.60;61.50;;;;;;4832161;29;20444;-95
2021/07/03 16:38:51;;;;;;;6.20;3.70;;;26.40;66.60;;;;;;4831101;29;20471;-91
2021/07/03 16:41:27;;;;;;;8.15;3.60;;;26.50;61.20;;;;;;4832775;29;20439;-96
2021/07/03 16:44:01;;;;;;;6.53;3.78;;;26.70;62.60;;;;;;4838489;29;20442;-95
2021/07/03 16:46:28;;;;;;;5.20;3.40;;;26.60;61.90;;;;;;4923381;23;20475;-93
2021/07/03 16:49:38;;;;;;;7.15;3.60;;;26.50;63.90;;;;;;4858418;24;20581;-91
2021/07/03 16:52:48;;;;;;;4.43;3.38;;;26.50;62.50;;;;;;4869726;24;20505;-96
2021/07/03 16:55:16;;;;;;;6.47;3.55;;;26.40;61.60;;;;;;4948467;24;20471;-94
2021/07/03 16:57:44;;;;;;;6.13;3.55;;;26.20;60.90;;;;;;4860129;29;20836;-95
2021/07/03 17:00:28;;;;;;;5.70;3.50;;;26.00;67.20;;;;;;4995343;24;20451;-94
2021/07/03 17:02:58;;;;;;;6.37;3.80;;;25.90;64.30;;;;;;4853272;29;20461;-95
2021/07/03 17:05:27;;;;;;;4.68;3.80;;;25.90;63.10;;;;;;4831153;29;20444;-95
2021/07/03 17:07:54;;;;;;;5.45;3.88;;;25.80;61.70;;;;;;4832053;29;20440;-93
2021/07/03 17:10:23;;;;;;;5.07;3.65;;;25.60;64.10;;;;;;4849234;29;20431;-95
2021/07/03 17:12:50;;;;;;;6.03;3.80;;;25.70;63.30;;;;;;4847115;29;20430;-92
2021/07/03 17:15:21;;;;;;;5.10;3.60;;;25.60;66.70;;;;;;4847146;29;20452;-92
2021/07/03 17:17:48;;;;;;;6.50;3.63;;;25.50;64.10;;;;;;4833017;29;20504;-92
2021/07/03 17:20:15;;;;;;;5.57;3.60;;;25.50;65.00;;;;;;4834949;29;20777;-91
2021/07/03 17:22:45;;;;;;;4.13;3.58;;;25.40;64.20;;;;;;4833311;29;20443;-94
2021/07/03 17:25:13;;;;;;;6.45;3.83;;;25.30;65.70;;;;;;4845540;29;20442;-90
2021/07/03 17:27:41;;;;;;;5.53;3.80;;;25.00;66.00;;;;;;4845921;29;20528;-94
2021/07/03 17:30:10;;;;;;;6.20;4.00;;;24.50;70.20;;;;;;4837222;29;20455;-92
2021/07/03 17:32:38;;;;;;;6.75;3.88;;;24.30;67.90;;;;;;4849773;29;20440;-96
2021/07/03 17:35:08;;;;;;;5.40;3.60;;;24.40;69.50;;;;;;4850327;29;20436;-93
2021/07/03 17:37:35;;;;;;;4.93;4.00;;;24.10;67.90;;;;;;4848202;29;20471;-91
2021/07/03 17:40:05;;;;;;;6.90;4.20;;;23.80;69.50;;;;;;4845856;29;20439;-93
2021/07/03 17:42:33;;;;;;;6.53;4.22;;;23.40;72.50;;;;;;4844071;29;20480;-96
2021/07/03 17:45:00;;;;;;;5.82;3.95;;;23.20;77.70;;;;;;4841082;29;20449;-94
2021/07/03 17:47:28;;;;;;;5.15;3.95;;;23.00;74.10;;;;;;4832932;29;20469;-95
2021/07/03 17:49:56;;;;;;;7.65;4.15;;;22.70;79.40;;;;;;4830735;29;20844;-94
2021/07/03 17:52:22;;;;;;;8.90;4.13;;;22.30;77.50;;;;;;4830413;29;20968;-90
2021/07/03 17:54:49;;;;;;;6.35;4.45;;;21.90;79.50;;;;;;4845416;29;20442;-94
2021/07/03 17:57:16;;;;;;;7.28;4.32;;;21.50;86.80;;;;;;4845283;29;20436;-90
2021/07/03 17:59:43;;;;;;;8.37;4.63;;;21.30;86.40;;;;;;4846905;29;20439;-93
2021/07/03 18:02:11;;;;;;;8.93;4.80;;;21.30;82.80;;;;;;4843534;29;20546;-93
2021/07/03 18:04:38;;;;;;;5.10;4.25;;;21.20;83.60;;;;;;4844050;29;20452;-94
2021/07/03 18:07:05;;;;;;;8.52;4.20;;;21.40;81.60;;;;;;4844333;29;20977;-93
2021/07/03 18:09:32;;;;;;;8.80;4.60;;;21.40;90.70;;;;;;4843855;29;20431;-92
2021/07/03 18:12:00;;;;;;;7.18;4.45;;;21.40;83.50;;;;;;4843440;29;20504;-94
2021/07/03 18:14:27;;;;;;;5.43;4.10;;;21.70;81.20;;;;;;4843755;29;20444;-96
2021/07/03 18:16:54;;;;;;;8.73;4.45;;;21.90;79.30;;;;;;4844515;29;20440;-90
2021/07/03 18:19:21;;;;;;;8.05;4.68;;;21.90;82.70;;;;;;4843488;29;20830;-92
2021/07/03 18:21:48;;;;;;;5.82;4.45;;;21.60;86.10;;;;;;4844622;29;20452;-95
2021/07/03 18:24:16;;;;;;;6.35;4.20;;;21.20;88.90;;;;;;4846717;29;20447;-92
2021/07/03 18:26:48;;;;;;;8.23;4.40;;;20.80;91.10;;;;;;4862332;29;20918;-93
2021/07/03 18:29:18;;;;;;;8.43;4.45;;;20.20;91.80;;;;;;4867773;23;2045008;-93
2021/07/03 18:31:45;;;;;;;9.40;5.05;;;19.70;93.70;;;;;;4812559;29;20445;-90
2021/07/03 18:34:12;;;;;;;7.75;4.90;;;19.40;95.20;;;;;;4811298;29;20843;-90
2021/07/03 18:36:39;;;;;;;7.03;4.47;;;19.10;96.70;;;;;;4815126;29;20458;-95
2021/07/03 18:39:12;;;;;;;7.63;4.75;;;18.50;98.30;;;;;;4815364;29;20437;-93
2021/07/03 18:41:40;;;;;;;8.75;4.75;;;18.20;99.10;;;;;;4814136;29;20506;-92
2021/07/03 18:44:07;;;;;;;8.05;5.10;;;17.90;99.90;;;;;;4811817;29;20445;-89
2021/07/03 18:46:36;;;;;;;8.50;4.90;;;17.60;99.90;;;;;;4812886;29;20469;-94
2021/07/03 18:49:06;;;;;;;7.18;5.15;;;17.30;99.90;;;;;;4812661;29;20437;-90
2021/07/03 18:51:33;;;;;;;7.40;5.00;;;16.90;99.90;;;;;;4813215;29;20505;-93
2021/07/03 18:54:04;;;;;;;5.80;4.38;;;16.80;99.90;;;;;;4815895;29;20481;-95
2021/07/03 18:56:32;;;;;;;8.57;5.20;;;16.70;99.90;;;;;;4816141;29;20434;-94
2021/07/03 18:58:59;;;;;;;5.88;4.40;;;16.70;99.90;;;;;;4811871;29;20442;-93
2021/07/03 19:01:26;;;;;;;8.05;5.20;;;16.60;99.90;;;;;;4812834;29;20441;-93
2021/07/03 19:03:59;;;;;;;12.43;5.10;;;16.40;99.90;;;;;;4813311;29;20472;-93
2021/07/03 19:43:52;;;;;;;7.05;5.47;;;14.50;99.90;;;;;;5813406;23;20408;-95
2021/07/03 19:51:45;;;;;;;9.30;5.85;;;14.60;99.90;;;;;;5557007;23;20524;-96
2021/07/03 19:54:56;;;;;;;8.45;5.65;;;14.50;99.90;;;;;;5000125;24;20455;-96
2021/07/03 20:05:07;;;;;;;13.20;5.38;;;14.60;99.90;;;;;;5795211;23;20398;-96
2021/07/03 20:13:26;;;;;;;7.68;5.57;;;14.90;99.90;;;;;;4866221;29;20521;-96
2021/07/03 20:15:56;;;;;;;7.13;5.40;;;14.90;99.90;;;;;;4855503;29;20446;-96
2021/07/03 20:18:24;;;;;;;10.68;5.40;;;14.90;99.90;;;;;;4849028;29;20442;-94
2021/07/03 20:20:55;;;;;;;8.52;5.68;;;14.90;99.90;;;;;;4848996;29;20441;-96
2021/07/03 20:23:26;;;;;;;11.73;5.90;;;14.90;99.90;;;;;;4849147;29;20444;-95
